createdAt,value
2018-05-19T00:01:22.129Z,51.49
2018-05-19T00:03:48.127Z,51.80
2018-05-19T00:06:14.079Z,51.70
2018-05-19T00:08:40.051Z,51.43
2018-05-19T00:11:06.024Z,51.48
2018-05-19T00:13:31.997Z,51.46
2018-05-19T00:15:57.987Z,52.37
2018-05-19T00:18:23.934Z,51.59
2018-05-19T00:20:49.921Z,51.81
2018-05-19T00:23:15.883Z,51.79
2018-05-19T00:25:41.830Z,51.45
2018-05-19T00:28:07.828Z,51.54
2018-05-19T00:30:33.792Z,51.81
2018-05-19T00:32:59.810Z,51.35
2018-05-19T00:35:25.769Z,51.61
2018-05-19T00:37:51.736Z,51.68
2018-05-19T00:40:21.397Z,51.58
2018-05-19T00:42:47.365Z,51.49
2018-05-19T00:45:13.332Z,52.09
2018-05-19T00:47:39.320Z,51.72
2018-05-19T00:50:05.270Z,51.49
2018-05-19T00:52:31.205Z,51.76
2018-05-19T00:54:57.198Z,51.66
2018-05-19T00:57:23.173Z,51.84
2018-05-19T00:59:50.320Z,51.68
2018-05-19T01:02:16.277Z,51.84
2018-05-19T01:04:42.244Z,51.89
2018-05-19T01:07:08.273Z,51.42
2018-05-19T01:09:34.246Z,51.38
2018-05-19T01:12:00.226Z,51.63
2018-05-19T01:14:26.196Z,51.33
2018-05-19T01:16:52.152Z,51.92
2018-05-19T01:19:18.117Z,51.67
2018-05-19T01:21:44.232Z,51.19
2018-05-19T01:24:10.209Z,51.80
2018-05-19T01:26:36.165Z,51.60
2018-05-19T01:29:02.167Z,51.99
2018-05-19T01:31:28.133Z,51.66
2018-05-19T01:33:54.101Z,51.50
2018-05-19T01:36:20.064Z,51.69
2018-05-19T01:38:46.032Z,51.44
2018-05-19T01:41:11.988Z,51.95
2018-05-19T01:43:37.964Z,51.56
2018-05-19T01:46:03.922Z,51.58
2018-05-19T01:48:29.887Z,51.88
2018-05-19T01:50:55.843Z,51.79
2018-05-19T01:53:21.805Z,51.57
2018-05-19T01:55:47.757Z,51.79
2018-05-19T01:58:13.713Z,51.77
2018-05-19T02:00:39.680Z,51.71
2018-05-19T02:03:05.651Z,51.64
2018-05-19T02:05:31.596Z,51.71
2018-05-19T02:07:57.573Z,51.58
2018-05-19T02:10:23.544Z,51.36
2018-05-19T02:12:49.514Z,52.22
2018-05-19T02:15:15.456Z,51.82
2018-05-19T02:17:41.434Z,51.93
2018-05-19T02:20:07.397Z,51.40
2018-05-19T02:22:33.370Z,51.56
2018-05-19T02:24:59.338Z,51.50
2018-05-19T02:27:28.623Z,51.62
2018-05-19T02:29:54.629Z,51.66
2018-05-19T02:32:20.608Z,51.52
2018-05-19T02:34:46.608Z,51.59
2018-05-19T02:37:12.631Z,51.45
2018-05-19T02:39:38.634Z,52.07
2018-05-19T02:42:04.590Z,51.63
2018-05-19T02:44:30.682Z,51.78
2018-05-19T02:46:56.658Z,51.07
2018-05-19T02:49:22.625Z,51.18
2018-05-19T02:51:48.621Z,51.20
2018-05-19T02:54:14.589Z,51.99
2018-05-19T02:56:40.580Z,51.67
2018-05-19T02:59:06.545Z,51.83
2018-05-19T03:01:33.541Z,51.43
2018-05-19T03:03:59.517Z,51.51
2018-05-19T03:06:25.480Z,51.68
2018-05-19T03:08:51.474Z,51.57
2018-05-19T03:11:17.432Z,51.88
2018-05-19T03:13:43.414Z,51.40
2018-05-19T03:16:09.394Z,52.18
2018-05-19T03:18:35.355Z,51.57
2018-05-19T03:21:01.349Z,51.29
2018-05-19T03:23:27.312Z,51.57
2018-05-19T03:25:53.286Z,51.71
2018-05-19T03:28:19.274Z,51.65
2018-05-19T03:30:45.260Z,51.37
2018-05-19T03:33:11.238Z,51.38
2018-05-19T03:35:37.214Z,51.55
2018-05-19T03:38:03.176Z,51.28
2018-05-19T03:40:29.188Z,51.37
2018-05-19T03:42:55.219Z,51.35
2018-05-19T03:45:21.214Z,51.49
2018-05-19T03:47:47.189Z,51.78
2018-05-19T03:50:13.169Z,51.92
2018-05-19T03:52:39.141Z,51.08
2018-05-19T03:55:05.106Z,50.13
2018-05-19T03:57:31.081Z,49.85
2018-05-19T03:59:57.165Z,50.62
2018-05-19T04:02:23.126Z,51.37
2018-05-19T04:04:49.086Z,50.94
2018-05-19T04:07:15.090Z,51.69
2018-05-19T04:09:41.103Z,50.99
2018-05-19T04:12:07.077Z,51.52
2018-05-19T04:14:35.145Z,51.08
2018-05-19T04:17:01.111Z,51.21
2018-05-19T04:19:27.088Z,51.22
2018-05-19T04:21:53.108Z,50.86
2018-05-19T04:24:19.098Z,51.25
2018-05-19T04:26:45.073Z,50.91
2018-05-19T04:29:11.077Z,51.38
2018-05-19T04:31:38.037Z,50.74
2018-05-19T04:34:04.023Z,51.36
2018-05-19T04:36:29.999Z,51.20
2018-05-19T04:38:55.958Z,50.96
2018-05-19T04:41:21.938Z,50.92
2018-05-19T04:43:47.904Z,50.68
2018-05-19T04:46:13.913Z,50.85
2018-05-19T04:48:39.880Z,50.81
2018-05-19T04:51:05.877Z,51.78
2018-05-19T04:53:31.900Z,51.50
2018-05-19T04:55:57.865Z,51.46
2018-05-19T04:58:23.816Z,51.56
2018-05-19T05:00:49.792Z,51.44
2018-05-19T05:03:15.780Z,51.83
2018-05-19T05:05:41.737Z,50.93
2018-05-19T05:08:07.710Z,51.19
2018-05-19T05:10:33.672Z,50.75
2018-05-19T05:12:59.655Z,51.04
2018-05-19T05:15:25.658Z,51.39
2018-05-19T05:17:55.062Z,51.68
2018-05-19T05:20:21.033Z,51.39
2018-05-19T05:22:47.009Z,51.72
2018-05-19T05:25:12.994Z,51.57
2018-05-19T05:27:38.970Z,51.54
2018-05-19T05:30:04.915Z,51.19
2018-05-19T05:32:30.902Z,51.34
2018-05-19T05:34:56.873Z,52.20
2018-05-19T05:37:22.834Z,51.63
2018-05-19T05:39:48.808Z,51.63
2018-05-19T05:42:14.742Z,51.69
2018-05-19T05:44:40.726Z,52.01
2018-05-19T05:47:10.283Z,51.65
2018-05-19T05:49:36.338Z,52.13
2018-05-19T05:52:02.300Z,51.61
2018-05-19T05:54:28.268Z,51.74
2018-05-19T05:56:54.256Z,51.56
2018-05-19T05:59:20.222Z,51.51
2018-05-19T06:01:46.207Z,51.39
2018-05-19T06:04:12.169Z,51.51
2018-05-19T06:06:38.148Z,51.36
2018-05-19T06:09:04.112Z,52.10
2018-05-19T06:11:34.943Z,52.38
2018-05-19T06:14:01.009Z,51.28
2018-05-19T06:16:26.980Z,51.71
2018-05-19T06:18:53.102Z,51.91
2018-05-19T06:21:19.004Z,51.61
2018-05-19T06:23:45.011Z,51.69
2018-05-19T06:26:10.977Z,51.70
2018-05-19T06:28:36.953Z,51.86
2018-05-19T06:31:02.948Z,52.25
2018-05-19T06:33:28.933Z,52.29
2018-05-19T06:35:54.903Z,52.44
2018-05-19T06:38:20.901Z,52.40
2018-05-19T06:40:46.858Z,51.64
2018-05-19T06:43:12.845Z,51.18
2018-05-19T06:45:38.820Z,50.67
2018-05-19T06:50:41.676Z,50.53
2018-05-19T06:53:07.673Z,50.67
2018-05-19T06:55:33.651Z,50.87
2018-05-19T06:57:59.627Z,51.75
2018-05-19T07:00:25.622Z,51.33
2018-05-19T07:02:51.603Z,51.28
2018-05-19T07:05:17.754Z,51.33
2018-05-19T07:07:43.723Z,51.30
2018-05-19T07:10:09.690Z,50.64
2018-05-19T07:12:35.665Z,50.80
2018-05-19T07:15:01.619Z,51.18
2018-05-19T07:17:27.599Z,51.55
2018-05-19T07:19:53.571Z,51.33
2018-05-19T07:22:20.666Z,51.44
2018-05-19T07:24:46.629Z,51.93
2018-05-19T07:27:12.611Z,51.21
2018-05-19T07:29:38.582Z,51.37
2018-05-19T07:32:04.550Z,52.10
2018-05-19T07:34:30.513Z,52.23
2018-05-19T07:36:59.928Z,51.30
2018-05-19T07:39:25.929Z,53.10
2018-05-19T07:41:51.889Z,51.82
2018-05-19T07:44:17.865Z,51.39
2018-05-19T07:46:43.835Z,50.49
2018-05-19T07:49:09.816Z,49.72
2018-05-19T07:51:35.788Z,50.04
2018-05-19T07:54:01.779Z,48.47
2018-05-19T07:56:27.763Z,47.85
2018-05-19T07:58:53.756Z,47.71
2018-05-19T08:01:19.744Z,48.51
2018-05-19T08:03:45.708Z,48.13
2018-05-19T08:06:11.689Z,47.71
2018-05-19T08:08:37.644Z,47.34
2018-05-19T08:11:03.597Z,47.45
2018-05-19T08:13:29.546Z,48.14
2018-05-19T08:15:55.535Z,47.62
2018-05-19T08:18:26.199Z,48.42
2018-05-19T08:20:55.565Z,47.38
2018-05-19T08:25:53.080Z,47.51
2018-05-19T08:28:19.054Z,47.53
2018-05-19T08:30:45.037Z,47.10
2018-05-19T08:33:11.007Z,47.46
2018-05-19T08:35:36.910Z,48.08
2018-05-19T08:38:02.869Z,47.33
2018-05-19T08:40:28.837Z,47.65
2018-05-19T08:42:54.805Z,47.60
2018-05-19T08:45:24.583Z,46.86
2018-05-19T08:47:50.603Z,47.09
2018-05-19T08:50:16.562Z,46.90
2018-05-19T08:52:42.556Z,47.11
2018-05-19T08:55:08.521Z,46.40
2018-05-19T08:57:34.504Z,46.69
2018-05-19T09:00:00.470Z,46.90
2018-05-19T09:02:26.429Z,47.43
2018-05-19T09:04:52.382Z,47.55
2018-05-19T09:07:18.347Z,48.43
2018-05-19T09:09:44.339Z,49.57
2018-05-19T09:12:12.081Z,47.87
2018-05-19T09:14:38.053Z,47.26
2018-05-19T09:17:04.151Z,48.08
2018-05-19T09:19:30.108Z,47.45
2018-05-19T09:21:56.117Z,47.40
2018-05-19T09:24:22.070Z,46.08
2018-05-19T09:26:48.016Z,47.32
2018-05-19T09:29:14.003Z,47.12
2018-05-19T09:31:39.993Z,47.61
2018-05-19T09:34:05.986Z,45.99
2018-05-19T09:36:31.948Z,46.60
2018-05-19T09:39:01.433Z,47.64
2018-05-19T09:41:27.418Z,46.64
2018-05-19T09:43:57.085Z,46.85
2018-05-19T09:46:23.052Z,47.02
2018-05-19T09:48:49.125Z,46.86
2018-05-19T09:51:15.105Z,46.67
2018-05-19T09:53:41.064Z,47.71
2018-05-19T09:58:39.902Z,47.75
2018-05-19T10:01:05.851Z,46.86
2018-05-19T10:03:31.841Z,46.98
2018-05-19T10:05:57.808Z,46.52
2018-05-19T10:08:23.832Z,47.46
2018-05-19T10:10:49.800Z,47.33
2018-05-19T10:13:15.779Z,46.45
2018-05-19T10:15:42.820Z,46.81
2018-05-19T10:18:08.780Z,46.13
2018-05-19T10:20:34.847Z,46.05
2018-05-19T10:23:00.881Z,45.82
2018-05-19T10:25:26.778Z,45.35
2018-05-19T10:27:52.751Z,46.50
2018-05-19T10:30:18.754Z,45.45
2018-05-19T10:35:16.988Z,45.42
2018-05-19T10:37:43.022Z,45.55
2018-05-19T10:40:08.989Z,46.53
2018-05-19T10:42:34.948Z,46.81
2018-05-19T10:45:00.916Z,46.07
2018-05-19T10:47:27.053Z,46.78
2018-05-19T10:49:53.035Z,46.15
2018-05-19T10:52:19.001Z,46.61
2018-05-19T10:54:44.963Z,45.93
2018-05-19T10:57:10.950Z,46.73
2018-05-19T10:59:36.941Z,46.02
2018-05-19T11:02:02.897Z,46.53
2018-05-19T11:04:28.872Z,46.39
2018-05-19T11:06:54.828Z,46.21
2018-05-19T11:09:20.786Z,45.77
2018-05-19T11:11:46.740Z,45.55
2018-05-19T11:14:12.715Z,45.81
2018-05-19T11:16:38.680Z,46.02
2018-05-19T11:19:04.624Z,46.09
2018-05-19T11:21:30.600Z,46.19
2018-05-19T11:23:56.581Z,46.62
2018-05-19T11:26:22.582Z,45.94
2018-05-19T11:28:48.629Z,46.11
2018-05-19T11:31:14.655Z,45.74
2018-05-19T11:33:40.699Z,45.70
2018-05-19T11:36:06.742Z,46.21
2018-05-19T11:38:32.707Z,46.66
2018-05-19T11:40:58.692Z,46.49
2018-05-19T11:43:24.690Z,46.00
2018-05-19T11:45:50.656Z,46.04
2018-05-19T11:48:17.675Z,46.74
2018-05-19T11:50:43.682Z,46.09
2018-05-19T11:53:09.640Z,46.14
2018-05-19T11:55:35.593Z,46.54
2018-05-19T11:58:01.804Z,46.13
2018-05-19T12:00:28.414Z,46.47
2018-05-19T12:02:54.403Z,46.07
2018-05-19T12:05:20.375Z,45.99
2018-05-19T12:07:46.329Z,46.42
2018-05-19T12:10:12.298Z,46.04
2018-05-19T12:12:38.277Z,46.37
2018-05-19T12:15:04.234Z,45.62
2018-05-19T12:17:31.200Z,46.47
2018-05-19T12:19:57.154Z,45.94
2018-05-19T12:22:23.128Z,47.80
2018-05-19T12:24:49.162Z,45.90
2018-05-19T12:27:15.125Z,46.44
2018-05-19T12:29:41.096Z,46.25
2018-05-19T12:32:07.084Z,46.56
2018-05-19T12:34:33.050Z,48.31
2018-05-19T12:36:59.016Z,46.46
2018-05-19T12:39:25.001Z,46.12
2018-05-19T12:41:50.975Z,46.83
2018-05-19T12:44:17.000Z,46.60
2018-05-19T12:46:42.966Z,46.55
2018-05-19T12:49:08.929Z,47.40
2018-05-19T12:51:34.924Z,47.55
2018-05-19T12:54:00.901Z,46.83
2018-05-19T12:56:27.937Z,46.57
2018-05-19T12:58:53.914Z,47.18
2018-05-19T13:01:19.889Z,46.94
2018-05-19T13:03:45.872Z,46.90
2018-05-19T13:06:11.853Z,47.09
2018-05-19T13:08:37.813Z,47.32
2018-05-19T13:11:03.774Z,47.07
2018-05-19T13:13:29.771Z,47.47
2018-05-19T13:15:55.754Z,47.49
2018-05-19T13:18:21.725Z,47.77
2018-05-19T13:20:47.699Z,47.75
2018-05-19T13:23:13.650Z,47.82
2018-05-19T13:25:39.722Z,48.15
2018-05-19T13:28:05.667Z,48.14
2018-05-19T13:30:31.628Z,47.86
2018-05-19T13:32:57.610Z,47.63
2018-05-19T13:35:23.588Z,47.27
2018-05-19T13:37:49.576Z,47.10
2018-05-19T13:40:15.554Z,46.83
2018-05-19T13:42:41.549Z,46.77
2018-05-19T13:45:07.536Z,46.67
2018-05-19T13:47:33.503Z,46.99
2018-05-19T13:49:59.466Z,46.76
2018-05-19T13:52:25.438Z,46.76
2018-05-19T13:54:52.183Z,46.68
2018-05-19T13:57:18.189Z,46.01
2018-05-19T13:59:44.150Z,46.27
2018-05-19T14:02:10.136Z,46.73
2018-05-19T14:04:36.109Z,46.71
2018-05-19T14:07:02.060Z,45.85
2018-05-19T14:09:28.021Z,45.77
2018-05-19T14:11:53.993Z,46.47
2018-05-19T14:14:19.946Z,46.32
2018-05-19T14:16:45.934Z,46.37
2018-05-19T14:19:11.929Z,46.32
2018-05-19T14:21:37.888Z,46.55
2018-05-19T14:24:03.859Z,46.73
2018-05-19T14:26:29.854Z,46.42
2018-05-19T14:28:55.794Z,47.00
2018-05-19T14:31:21.774Z,46.86
2018-05-19T14:33:47.765Z,46.34
2018-05-19T14:36:13.741Z,46.73
2018-05-19T14:38:39.736Z,46.29
2018-05-19T14:41:05.722Z,46.34
2018-05-19T14:43:31.679Z,46.44
2018-05-19T14:45:57.690Z,46.23
2018-05-19T14:48:23.659Z,46.72
2018-05-19T14:50:49.661Z,45.96
2018-05-19T14:53:15.684Z,45.72
2018-05-19T14:55:41.583Z,45.93
2018-05-19T14:58:07.536Z,46.07
2018-05-19T15:00:33.493Z,47.12
2018-05-19T15:02:59.474Z,46.02
2018-05-19T15:05:25.433Z,47.06
2018-05-19T15:07:51.399Z,47.69
2018-05-19T15:10:17.359Z,45.34
2018-05-19T15:12:43.331Z,46.00
2018-05-19T15:15:09.296Z,44.73
2018-05-19T15:17:35.247Z,45.41
2018-05-19T15:20:01.251Z,43.97
2018-05-19T15:22:27.211Z,44.37
2018-05-19T15:24:53.195Z,44.20
2018-05-19T15:27:19.156Z,43.57
2018-05-19T15:29:45.247Z,45.52
2018-05-19T15:32:11.228Z,43.91
2018-05-19T15:34:37.215Z,44.08
2018-05-19T15:37:03.136Z,44.86
2018-05-19T15:39:29.088Z,45.43
2018-05-19T15:41:55.090Z,44.25
2018-05-19T15:44:21.066Z,44.38
2018-05-19T15:46:47.040Z,45.55
2018-05-19T15:49:13.001Z,44.05
2018-05-19T15:51:38.991Z,45.15
2018-05-19T15:54:04.992Z,44.77
2018-05-19T15:56:30.956Z,45.13
2018-05-19T15:58:56.925Z,45.57
2018-05-19T16:01:22.896Z,45.41
2018-05-19T16:03:48.881Z,45.65
2018-05-19T16:06:14.849Z,45.31
2018-05-19T16:08:40.884Z,45.34
2018-05-19T16:11:06.802Z,45.61
2018-05-19T16:13:32.765Z,45.38
2018-05-19T16:15:58.722Z,45.74
2018-05-19T16:18:24.686Z,45.57
2018-05-19T16:20:50.632Z,45.05
2018-05-19T16:23:16.596Z,45.18
2018-05-19T16:25:42.533Z,45.51
2018-05-19T16:28:08.485Z,45.83
2018-05-19T16:30:34.450Z,45.67
2018-05-19T16:33:02.513Z,45.56
2018-05-19T16:35:32.904Z,45.64
2018-05-19T16:37:58.890Z,45.36
2018-05-19T16:40:24.895Z,45.79
2018-05-19T16:42:50.837Z,45.73
2018-05-19T16:45:16.825Z,45.42
2018-05-19T16:47:42.797Z,45.85
2018-05-19T16:50:08.758Z,46.28
2018-05-19T16:52:34.743Z,46.61
2018-05-19T16:55:00.705Z,46.33
2018-05-19T16:57:26.813Z,46.38
2018-05-19T16:59:52.777Z,45.54
2018-05-19T17:02:18.733Z,45.54
2018-05-19T17:04:44.713Z,45.24
2018-05-19T17:07:10.677Z,45.20
2018-05-19T17:09:36.672Z,45.46
2018-05-19T17:12:02.635Z,45.50
2018-05-19T17:14:28.603Z,45.15
2018-05-19T17:16:54.595Z,45.56
2018-05-19T17:19:20.581Z,45.71
2018-05-19T17:21:46.565Z,45.45
2018-05-19T17:24:12.503Z,45.41
2018-05-19T17:26:38.499Z,45.54
2018-05-19T17:29:04.457Z,45.11
2018-05-19T17:31:30.439Z,45.79
2018-05-19T17:33:57.443Z,45.68
2018-05-19T17:36:23.384Z,46.13
2018-05-19T17:38:49.388Z,45.75
2018-05-19T17:41:15.360Z,45.84
2018-05-19T17:43:41.358Z,45.94
2018-05-19T17:46:07.425Z,45.61
2018-05-19T17:48:33.305Z,45.26
2018-05-19T17:50:59.269Z,46.83
2018-05-19T17:53:25.261Z,45.62
2018-05-19T17:55:51.263Z,45.30
2018-05-19T17:58:17.244Z,45.05
2018-05-19T18:00:43.233Z,45.05
2018-05-19T18:03:09.247Z,45.26
2018-05-19T18:05:35.242Z,44.83
2018-05-19T18:08:01.208Z,45.36
2018-05-19T18:10:27.184Z,45.16
2018-05-19T18:12:53.155Z,45.61
2018-05-19T18:15:19.128Z,45.33
2018-05-19T18:17:45.106Z,45.66
2018-05-19T18:20:11.078Z,45.49
2018-05-19T18:22:37.067Z,45.06
2018-05-19T18:25:03.049Z,45.54
2018-05-19T18:27:29.009Z,46.51
2018-05-19T18:29:54.974Z,46.35
2018-05-19T18:32:20.949Z,46.21
2018-05-19T18:34:46.940Z,46.33
2018-05-19T18:37:13.034Z,46.52
2018-05-19T18:39:38.985Z,46.73
2018-05-19T18:42:04.972Z,47.60
2018-05-19T18:44:31.054Z,46.96
2018-05-19T18:46:57.011Z,47.24
2018-05-19T18:49:28.859Z,47.34
2018-05-19T18:51:54.832Z,47.62
2018-05-19T18:54:20.819Z,47.54
2018-05-19T18:56:46.796Z,47.72
2018-05-19T18:59:12.766Z,47.71
2018-05-19T19:01:38.739Z,48.00
2018-05-19T19:04:04.706Z,48.16
2018-05-19T19:06:32.681Z,47.76
2018-05-19T19:08:58.671Z,50.16
2018-05-19T19:11:24.627Z,48.41
2018-05-19T19:13:50.606Z,49.03
2018-05-19T19:16:16.572Z,48.67
2018-05-19T19:18:42.537Z,48.95
2018-05-19T19:21:08.487Z,48.58
2018-05-19T19:23:34.477Z,48.47
2018-05-19T19:26:00.445Z,48.55
2018-05-19T19:28:26.432Z,48.71
2018-05-19T19:30:52.436Z,48.70
2018-05-19T19:33:18.405Z,49.06
2018-05-19T19:35:44.419Z,48.94
2018-05-19T19:38:10.411Z,49.05
2018-05-19T19:40:36.360Z,48.71
2018-05-19T19:43:02.411Z,48.71
2018-05-19T19:45:28.359Z,49.77
2018-05-19T19:47:54.336Z,48.78
2018-05-19T19:50:20.321Z,49.75
2018-05-19T19:52:46.309Z,49.38
2018-05-19T19:55:12.327Z,49.28
2018-05-19T19:57:38.312Z,49.36
2018-05-19T20:00:04.292Z,49.49
2018-05-19T20:02:30.273Z,49.66
2018-05-19T20:04:56.230Z,49.95
2018-05-19T20:07:22.308Z,49.37
2018-05-19T20:09:48.287Z,49.56
2018-05-19T20:12:14.258Z,49.46
2018-05-19T20:14:40.233Z,49.25
2018-05-19T20:17:06.224Z,49.30
2018-05-19T20:19:32.253Z,49.67
2018-05-19T20:21:58.178Z,49.66
2018-05-19T20:24:24.164Z,49.66
2018-05-19T20:26:50.142Z,49.74
2018-05-19T20:29:16.144Z,49.86
2018-05-19T20:31:44.122Z,50.01
2018-05-19T20:34:10.183Z,50.40
2018-05-19T20:36:36.140Z,50.47
2018-05-19T20:39:02.157Z,50.00
2018-05-19T20:41:28.128Z,50.21
2018-05-19T20:43:54.154Z,49.80
2018-05-19T20:46:20.063Z,49.49
2018-05-19T20:48:46.074Z,49.94
2018-05-19T20:51:12.081Z,50.21
2018-05-19T20:53:38.031Z,50.38
2018-05-19T20:56:04.014Z,50.29
2018-05-19T20:58:29.996Z,50.54
2018-05-19T21:00:55.961Z,49.88
2018-05-19T21:05:53.275Z,49.81
2018-05-19T21:08:19.213Z,49.85
2018-05-19T21:10:45.176Z,50.26
2018-05-19T21:13:11.139Z,50.21
2018-05-19T21:15:37.092Z,50.26
2018-05-19T21:18:03.045Z,50.33
2018-05-19T21:20:29.023Z,49.93
2018-05-19T21:22:54.996Z,50.18
2018-05-19T21:25:20.952Z,50.39
2018-05-19T21:27:46.993Z,50.21
2018-05-19T21:30:12.935Z,50.40
2018-05-19T21:32:38.904Z,50.15
2018-05-19T21:35:05.901Z,50.41
2018-05-19T21:37:31.859Z,50.21
2018-05-19T21:39:57.833Z,50.94
2018-05-19T21:42:23.848Z,52.26
2018-05-19T21:44:49.825Z,52.30
2018-05-19T21:47:15.815Z,50.52
2018-05-19T21:49:41.795Z,50.95
2018-05-19T21:52:07.980Z,51.17
2018-05-19T21:54:34.000Z,50.27
2018-05-19T21:56:59.965Z,50.40
2018-05-19T21:59:25.946Z,51.28
2018-05-19T22:01:57.061Z,50.59
2018-05-19T22:04:23.086Z,51.00
2018-05-19T22:06:49.077Z,50.64
2018-05-19T22:09:15.079Z,50.97
2018-05-19T22:11:41.070Z,51.11
2018-05-19T22:14:07.048Z,51.48
2018-05-19T22:16:34.055Z,50.78
2018-05-19T22:21:35.639Z,51.04
2018-05-19T22:24:01.639Z,50.80
2018-05-19T22:26:27.620Z,51.24
2018-05-19T22:31:24.869Z,51.07
2018-05-19T22:33:50.853Z,51.76
2018-05-19T22:36:16.985Z,51.35
2018-05-19T22:38:42.957Z,50.71
2018-05-19T22:41:08.935Z,50.85
2018-05-19T22:43:34.965Z,51.03
2018-05-19T22:46:00.925Z,51.01
2018-05-19T22:48:26.904Z,50.84
2018-05-19T22:50:52.901Z,52.83
2018-05-19T22:53:18.870Z,50.98
2018-05-19T22:55:44.882Z,50.91
2018-05-19T22:58:10.852Z,50.68
2018-05-19T23:00:36.846Z,51.01
2018-05-19T23:03:02.796Z,50.69
2018-05-19T23:05:28.855Z,50.95
2018-05-19T23:07:54.838Z,51.32
2018-05-19T23:10:20.824Z,51.17
2018-05-19T23:12:46.792Z,51.28
2018-05-19T23:15:12.810Z,51.18
2018-05-19T23:17:38.780Z,50.99
2018-05-19T23:20:04.722Z,50.99
2018-05-19T23:22:30.743Z,50.91
2018-05-19T23:24:56.702Z,50.54
2018-05-19T23:27:22.663Z,51.15
2018-05-19T23:29:48.737Z,50.97
2018-05-19T23:32:14.689Z,51.05
2018-05-19T23:34:40.641Z,50.98
2018-05-19T23:37:06.609Z,51.38
2018-05-19T23:39:32.591Z,51.13
2018-05-19T23:41:58.545Z,51.22
2018-05-19T23:44:24.577Z,50.56
2018-05-19T23:46:50.532Z,52.20
2018-05-19T23:49:16.502Z,51.28
2018-05-19T23:51:42.499Z,51.50
2018-05-19T23:54:08.486Z,51.05
2018-05-19T23:56:34.536Z,51.36
2018-05-19T23:59:00.529Z,51.33
